createdAt,value
2022-09-07T00:02:23.893Z,14.02
2022-09-07T00:04:51.964Z,14.01
2022-09-07T00:07:20.259Z,14.03
2022-09-07T00:09:48.482Z,13.97
2022-09-07T00:12:16.557Z,13.97
2022-09-07T00:14:44.647Z,13.94
2022-09-07T00:17:12.728Z,13.88
2022-09-07T00:19:42.363Z,13.85
2022-09-07T00:22:10.478Z,13.86
2022-09-07T00:24:38.757Z,13.81
2022-09-07T00:27:06.940Z,13.78
2022-09-07T00:29:35.005Z,13.74
2022-09-07T00:32:03.455Z,13.75
2022-09-07T00:34:31.517Z,13.72
2022-09-07T00:37:01.046Z,13.70
2022-09-07T00:39:29.243Z,13.68
2022-09-07T00:41:57.333Z,13.67
2022-09-07T00:45:04.074Z,13.66
2022-09-07T00:47:37.947Z,13.62
2022-09-07T00:50:11.145Z,13.64
2022-09-07T00:52:43.308Z,13.60
2022-09-07T00:55:15.268Z,13.68
2022-09-07T00:57:47.951Z,13.72
2022-09-07T01:00:16.612Z,13.70
2022-09-07T01:02:45.107Z,13.72
2022-09-07T01:05:20.694Z,13.71
2022-09-07T01:07:50.349Z,13.69
2022-09-07T01:10:18.800Z,13.73
2022-09-07T01:12:46.880Z,13.69
2022-09-07T01:15:14.992Z,13.70
2022-09-07T01:17:56.866Z,13.72
2022-09-07T01:20:50.592Z,13.73
2022-09-07T01:23:59.972Z,13.73
2022-09-07T01:27:05.110Z,13.75
2022-09-07T01:29:39.491Z,13.75
2022-09-07T01:32:15.621Z,13.72
2022-09-07T01:34:47.478Z,13.71
2022-09-07T01:37:24.577Z,13.73
2022-09-07T01:39:57.087Z,13.64
2022-09-07T01:42:31.832Z,13.69
2022-09-07T01:45:03.278Z,13.63
2022-09-07T01:47:35.536Z,13.64
2022-09-07T01:50:09.578Z,13.66
2022-09-07T01:52:43.038Z,13.65
2022-09-07T01:55:16.680Z,13.59
2022-09-07T01:57:51.159Z,13.56
2022-09-07T02:00:21.088Z,13.59
2022-09-07T02:02:56.501Z,13.52
2022-09-07T02:05:29.142Z,13.59
2022-09-07T02:08:00.184Z,13.63
2022-09-07T02:10:35.184Z,13.57
2022-09-07T02:13:09.368Z,13.56
2022-09-07T02:15:46.099Z,13.56
2022-09-07T02:18:15.427Z,13.50
2022-09-07T02:20:48.157Z,13.52
2022-09-07T02:23:21.180Z,13.51
2022-09-07T02:25:55.151Z,13.53
2022-09-07T02:28:28.056Z,13.48
2022-09-07T02:30:57.697Z,13.49
2022-09-07T02:33:25.900Z,13.57
2022-09-07T02:35:54.278Z,13.52
2022-09-07T02:38:22.832Z,13.49
2022-09-07T02:40:53.156Z,13.50
2022-09-07T02:43:23.053Z,13.54
2022-09-07T02:46:19.653Z,13.55
2022-09-07T02:48:55.740Z,13.42
2022-09-07T02:51:32.751Z,13.43
2022-09-07T02:54:16.704Z,13.44
2022-09-07T02:56:59.129Z,13.36
2022-09-07T02:59:40.982Z,13.25
2022-09-07T03:02:18.397Z,13.25
2022-09-07T03:04:52.304Z,13.23
2022-09-07T03:07:24.015Z,13.14
2022-09-07T03:09:55.293Z,13.21
2022-09-07T03:12:23.695Z,13.22
2022-09-07T03:14:51.741Z,13.22
2022-09-07T03:17:21.197Z,13.21
2022-09-07T03:19:49.265Z,13.13
2022-09-07T03:22:17.358Z,13.15
2022-09-07T03:24:45.999Z,13.15
2022-09-07T03:27:14.081Z,13.16
2022-09-07T03:29:42.281Z,13.18
2022-09-07T03:32:10.365Z,13.18
2022-09-07T03:34:39.910Z,13.19
2022-09-07T03:37:07.993Z,13.20
2022-09-07T03:39:36.684Z,13.20
2022-09-07T03:42:05.113Z,13.27
2022-09-07T03:44:33.628Z,13.25
2022-09-07T03:47:01.712Z,13.23
2022-09-07T03:49:29.800Z,13.28
2022-09-07T03:51:59.196Z,13.28
2022-09-07T03:54:27.364Z,13.28
2022-09-07T03:56:55.461Z,13.26
2022-09-07T03:59:23.681Z,13.20
2022-09-07T04:01:51.839Z,13.24
2022-09-07T04:04:20.012Z,13.21
2022-09-07T04:06:48.161Z,13.17
2022-09-07T04:09:17.731Z,13.16
2022-09-07T04:11:45.826Z,13.21
2022-09-07T04:14:13.987Z,13.19
2022-09-07T04:16:42.178Z,13.20
2022-09-07T04:19:10.282Z,13.19
2022-09-07T04:21:38.376Z,13.21
2022-09-07T04:24:06.807Z,13.20
2022-09-07T04:26:37.068Z,13.23
2022-09-07T04:29:06.921Z,13.23
2022-09-07T04:31:35.728Z,13.35
2022-09-07T04:34:05.084Z,13.40
2022-09-07T04:36:33.340Z,13.44
2022-09-07T04:39:04.067Z,13.43
2022-09-07T04:41:34.221Z,13.41
2022-09-07T04:44:05.329Z,13.37
2022-09-07T04:46:35.152Z,13.29
2022-09-07T04:49:06.072Z,13.38
2022-09-07T04:51:35.089Z,13.42
2022-09-07T04:54:04.204Z,13.45
2022-09-07T04:56:32.701Z,13.46
2022-09-07T04:59:03.275Z,13.48
2022-09-07T05:01:31.463Z,13.47
2022-09-07T05:04:00.581Z,13.45
2022-09-07T05:06:28.803Z,13.44
2022-09-07T05:08:57.298Z,13.49
2022-09-07T05:11:29.539Z,13.52
2022-09-07T05:13:58.201Z,13.53
2022-09-07T05:16:28.827Z,13.61
2022-09-07T05:18:59.478Z,13.64
2022-09-07T05:21:29.812Z,13.69
2022-09-07T05:23:59.478Z,13.71
2022-09-07T05:26:30.236Z,13.66
2022-09-07T05:31:51.878Z,13.80
2022-09-07T05:34:35.499Z,13.83
2022-09-07T05:37:03.926Z,13.89
2022-09-07T05:39:32.361Z,13.92
2022-09-07T05:42:00.489Z,13.94
2022-09-07T05:44:44.985Z,13.94
2022-09-07T05:47:15.149Z,13.96
2022-09-07T05:49:43.230Z,14.07
2022-09-07T05:52:12.248Z,14.11
2022-09-07T05:54:40.399Z,14.13
2022-09-07T05:57:09.045Z,14.18
2022-09-07T05:59:37.127Z,14.16
2022-09-07T06:02:06.146Z,14.17
2022-09-07T06:04:35.733Z,14.17
2022-09-07T06:07:21.732Z,14.25
2022-09-07T06:12:39.197Z,14.32
2022-09-07T06:15:08.529Z,14.32
2022-09-07T06:17:36.633Z,14.33
2022-09-07T06:20:07.649Z,14.37
2022-09-07T06:22:36.508Z,14.29
2022-09-07T06:25:04.943Z,14.27
2022-09-07T06:27:33.076Z,14.36
2022-09-07T06:30:01.293Z,14.34
2022-09-07T06:32:45.758Z,14.41
2022-09-07T06:35:16.150Z,14.53
2022-09-07T06:37:44.296Z,14.45
2022-09-07T06:40:13.708Z,14.45
2022-09-07T06:42:41.849Z,14.47
2022-09-07T06:45:11.316Z,14.49
2022-09-07T06:47:40.129Z,14.58
2022-09-07T06:50:09.450Z,14.65
2022-09-07T06:55:28.637Z,14.75
2022-09-07T06:57:57.019Z,14.70
2022-09-07T07:00:25.302Z,14.72
2022-09-07T07:02:53.516Z,14.67
2022-09-07T07:05:21.822Z,14.55
2022-09-07T07:07:51.252Z,14.54
2022-09-07T07:10:24.284Z,14.54
2022-09-07T07:12:57.101Z,14.56
2022-09-07T07:15:27.403Z,14.53
2022-09-07T07:17:59.058Z,14.54
2022-09-07T07:20:33.741Z,14.49
2022-09-07T07:23:03.177Z,14.56
2022-09-07T07:25:31.616Z,14.52
2022-09-07T07:30:47.736Z,14.60
2022-09-07T07:33:15.837Z,14.50
2022-09-07T07:35:43.898Z,14.43
2022-09-07T07:43:49.612Z,14.14
2022-09-07T07:46:18.269Z,14.05
2022-09-07T07:48:49.097Z,13.99
2022-09-07T07:51:17.319Z,13.98
2022-09-07T07:53:46.916Z,14.00
2022-09-07T07:56:15.326Z,13.96
2022-09-07T07:58:46.635Z,13.94
2022-09-07T08:01:16.616Z,13.74
2022-09-07T08:03:46.843Z,13.63
2022-09-07T08:06:16.721Z,13.53
2022-09-07T08:08:46.518Z,13.33
2022-09-07T08:11:16.989Z,13.27
2022-09-07T08:13:46.518Z,13.21
2022-09-07T08:16:15.235Z,13.13
2022-09-07T08:18:46.957Z,13.08
2022-09-07T08:21:16.810Z,13.09
2022-09-07T08:23:46.165Z,13.20
2022-09-07T08:26:14.117Z,13.25
2022-09-07T08:28:43.893Z,13.19
2022-09-07T08:31:15.092Z,13.21
2022-09-07T08:33:43.854Z,13.18
2022-09-07T08:36:13.695Z,13.17
2022-09-07T08:38:42.662Z,13.19
2022-09-07T08:41:47.265Z,13.13
2022-09-07T08:44:22.997Z,13.15
2022-09-07T08:46:56.711Z,13.12
2022-09-07T08:49:33.915Z,13.12
2022-09-07T08:52:05.177Z,13.09
2022-09-07T08:54:34.137Z,13.12
2022-09-07T09:00:00.541Z,13.17
2022-09-07T09:02:31.916Z,13.27
2022-09-07T09:05:18.190Z,13.29
2022-09-07T09:07:56.241Z,13.27
2022-09-07T09:10:33.984Z,13.37
2022-09-07T09:13:13.191Z,13.45
2022-09-07T09:15:53.207Z,13.53
2022-09-07T09:18:41.561Z,13.63
2022-09-07T09:21:15.020Z,13.68
2022-09-07T09:23:45.647Z,13.78
2022-09-07T09:26:18.647Z,13.81
2022-09-07T09:28:48.037Z,13.90
2022-09-07T09:31:19.326Z,13.75
2022-09-07T09:34:09.398Z,13.62
2022-09-07T09:36:43.375Z,13.57
2022-09-07T09:39:31.511Z,13.65
2022-09-07T09:42:14.121Z,13.71
2022-09-07T09:44:45.414Z,13.79
2022-09-07T09:47:30.721Z,13.94
2022-09-07T09:50:00.893Z,14.04
2022-09-07T09:52:38.473Z,14.02
2022-09-07T09:55:34.570Z,14.01
2022-09-07T10:06:22.996Z,14.77
2022-09-07T10:08:57.337Z,15.11
2022-09-07T10:14:32.330Z,15.59
2022-09-07T10:17:11.237Z,15.83
2022-09-07T10:19:41.501Z,15.82
2022-09-07T10:22:24.706Z,15.98
2022-09-07T10:24:53.032Z,16.06
2022-09-07T10:27:29.772Z,16.30
2022-09-07T10:29:58.001Z,16.42
2022-09-07T10:32:36.295Z,16.57
2022-09-07T10:35:15.257Z,16.83
2022-09-07T10:37:52.168Z,16.88
2022-09-07T10:40:29.509Z,17.15
2022-09-07T10:43:22.786Z,17.35
2022-09-07T10:46:56.417Z,17.47
2022-09-07T10:49:17.377Z,17.56
2022-09-07T10:51:59.649Z,17.58
2022-09-07T10:54:37.248Z,17.63
2022-09-07T10:57:24.161Z,17.63
2022-09-07T11:00:09.647Z,17.79
2022-09-07T11:06:00.226Z,17.62
2022-09-07T11:09:15.716Z,17.79
2022-09-07T11:14:21.173Z,18.23
2022-09-07T11:16:54.092Z,18.46
2022-09-07T11:19:36.522Z,18.30
2022-09-07T11:22:20.050Z,18.40
2022-09-07T11:27:46.507Z,18.60
2022-09-07T11:30:20.773Z,18.57
2022-09-07T11:33:03.251Z,18.64
2022-09-07T11:35:45.879Z,18.50
2022-09-07T11:38:26.589Z,18.66
2022-09-07T11:41:09.253Z,18.89
2022-09-07T11:43:41.873Z,19.02
2022-09-07T11:46:15.245Z,18.87
2022-09-07T11:48:46.868Z,19.14
2022-09-07T11:51:21.490Z,19.13
2022-09-07T11:53:54.525Z,19.35
2022-09-07T11:56:29.291Z,19.64
2022-09-07T11:59:20.460Z,19.42
2022-09-07T12:02:02.450Z,19.69
2022-09-07T12:04:39.934Z,19.68
2022-09-07T12:07:50.065Z,20.01
2022-09-07T12:10:36.399Z,20.02
2022-09-07T12:13:42.973Z,19.94
2022-09-07T12:16:18.602Z,20.15
2022-09-07T12:19:18.418Z,20.20
2022-09-07T12:21:50.340Z,20.28
2022-09-07T12:24:44.091Z,20.28
2022-09-07T12:27:40.459Z,20.33
2022-09-07T12:30:51.876Z,20.47
2022-09-07T12:33:25.096Z,20.69
2022-09-07T12:35:55.012Z,21.16
2022-09-07T12:39:01.670Z,22.51
2022-09-07T12:41:47.899Z,23.85
2022-09-07T12:44:20.255Z,25.88
2022-09-07T12:46:51.910Z,26.95
2022-09-07T12:49:48.390Z,26.80
2022-09-07T12:52:39.417Z,28.76
2022-09-07T12:56:15.502Z,29.06
2022-09-07T12:58:22.040Z,30.19
2022-09-07T13:01:05.633Z,29.51
2022-09-07T13:03:51.394Z,28.41
2022-09-07T13:09:32.840Z,30.95
2022-09-07T13:12:04.640Z,31.78
2022-09-07T13:14:37.918Z,32.05
2022-09-07T13:17:41.636Z,32.97
2022-09-07T13:20:30.077Z,33.37
2022-09-07T13:23:09.732Z,31.90
2022-09-07T13:25:46.573Z,32.70
2022-09-07T13:28:25.860Z,32.86
2022-09-07T13:31:05.640Z,31.85
2022-09-07T13:33:51.574Z,32.79
2022-09-07T13:36:27.614Z,32.86
2022-09-07T13:38:56.169Z,31.48
2022-09-07T13:41:28.169Z,33.04
2022-09-07T13:44:00.708Z,34.00
2022-09-07T13:46:47.685Z,34.50
2022-09-07T13:49:36.055Z,35.00
2022-09-07T13:52:08.854Z,35.15
2022-09-07T13:54:51.320Z,33.66
2022-09-07T13:57:27.439Z,34.44
2022-09-07T13:59:56.786Z,34.98
2022-09-07T14:02:27.641Z,35.10
2022-09-07T14:04:58.794Z,35.07
2022-09-07T14:07:28.261Z,35.89
2022-09-07T14:10:14.325Z,35.56
2022-09-07T14:12:44.396Z,34.75
2022-09-07T14:15:20.162Z,34.13
2022-09-07T14:17:49.657Z,35.87
2022-09-07T14:20:19.556Z,35.58
2022-09-07T14:22:52.009Z,35.74
2022-09-07T14:25:22.764Z,35.15
2022-09-07T14:27:51.263Z,35.28
2022-09-07T14:30:25.918Z,35.96
2022-09-07T14:32:55.834Z,35.87
2022-09-07T14:35:28.296Z,36.02
2022-09-07T14:37:59.308Z,34.87
2022-09-07T14:40:27.502Z,34.23
2022-09-07T14:42:56.244Z,33.66
2022-09-07T14:45:34.975Z,31.72
2022-09-07T14:48:13.414Z,31.00
2022-09-07T14:51:00.889Z,30.17
2022-09-07T14:53:37.453Z,29.37
2022-09-07T14:56:11.376Z,28.85
2022-09-07T14:58:39.389Z,28.41
2022-09-07T15:04:18.389Z,27.77
2022-09-07T15:07:03.646Z,27.53
2022-09-07T15:09:37.369Z,26.99
2022-09-07T15:12:27.321Z,26.89
2022-09-07T15:15:11.929Z,26.23
2022-09-07T15:17:43.551Z,26.21
2022-09-07T15:20:40.300Z,25.87
2022-09-07T15:23:13.424Z,25.53
2022-09-07T15:25:46.568Z,25.08
2022-09-07T15:34:00.930Z,24.64
2022-09-07T15:36:31.881Z,24.45
2022-09-07T15:39:02.992Z,24.33
2022-09-07T15:41:31.615Z,24.14
2022-09-07T15:44:00.182Z,24.12
2022-09-07T15:46:28.362Z,23.98
2022-09-07T15:48:57.071Z,23.78
2022-09-07T15:54:16.320Z,23.62
2022-09-07T15:57:48.293Z,23.59
2022-09-07T15:59:32.956Z,23.44
2022-09-07T16:02:01.632Z,23.37
2022-09-07T16:04:30.419Z,23.32
2022-09-07T16:07:01.624Z,23.10
2022-09-07T16:09:31.141Z,23.14
2022-09-07T16:13:00.226Z,23.03
2022-09-07T16:14:47.041Z,22.99
2022-09-07T16:20:04.543Z,22.88
2022-09-07T16:25:22.212Z,22.77
2022-09-07T16:27:50.230Z,22.67
2022-09-07T16:30:18.306Z,22.62
2022-09-07T16:32:46.353Z,22.62
2022-09-07T16:35:14.596Z,22.72
2022-09-07T16:38:43.571Z,22.87
2022-09-07T16:40:31.912Z,22.87
2022-09-07T16:42:59.847Z,22.89
2022-09-07T16:48:15.714Z,22.87
2022-09-07T16:51:00.298Z,22.86
2022-09-07T16:53:30.184Z,22.84
2022-09-07T16:56:03.117Z,22.69
2022-09-07T16:58:35.934Z,22.63
2022-09-07T17:01:04.995Z,22.59
2022-09-07T17:03:33.302Z,22.58
2022-09-07T17:06:01.655Z,22.47
2022-09-07T17:08:29.947Z,22.34
2022-09-07T17:11:00.355Z,22.20
2022-09-07T17:13:31.368Z,22.09
2022-09-07T17:16:03.298Z,21.98
2022-09-07T17:21:20.842Z,21.74
2022-09-07T17:23:54.903Z,21.47
2022-09-07T17:26:26.598Z,21.40
2022-09-07T17:29:00.311Z,21.29
2022-09-07T17:34:19.455Z,21.08
2022-09-07T17:36:47.733Z,21.04
2022-09-07T17:39:18.963Z,20.95
2022-09-07T17:41:48.287Z,20.72
2022-09-07T17:44:17.609Z,20.61
2022-09-07T17:46:45.571Z,20.55
2022-09-07T17:49:16.163Z,20.37
2022-09-07T17:51:44.226Z,20.27
2022-09-07T17:54:14.178Z,20.28
2022-09-07T17:56:43.095Z,20.27
2022-09-07T18:02:01.854Z,20.14
2022-09-07T18:04:30.210Z,20.00
2022-09-07T18:06:58.259Z,20.00
2022-09-07T18:09:26.290Z,19.85
2022-09-07T18:11:54.244Z,19.75
2022-09-07T18:14:22.208Z,19.69
2022-09-07T18:16:51.356Z,19.72
2022-09-07T18:19:20.764Z,19.74
2022-09-07T18:21:49.628Z,19.67
2022-09-07T18:24:20.004Z,19.66
2022-09-07T18:26:50.143Z,19.57
2022-09-07T18:29:31.081Z,19.55
2022-09-07T18:32:03.051Z,19.46
2022-09-07T18:34:32.522Z,19.24
2022-09-07T18:37:00.788Z,19.20
2022-09-07T18:39:29.603Z,19.08
2022-09-07T18:41:57.724Z,18.89
2022-09-07T18:47:21.725Z,18.86
2022-09-07T18:49:52.761Z,18.81
2022-09-07T18:55:10.557Z,18.66
2022-09-07T18:57:38.882Z,18.62
2022-09-07T19:00:09.371Z,18.52
2022-09-07T19:02:37.605Z,18.47
2022-09-07T19:07:55.659Z,18.40
2022-09-07T19:10:23.616Z,18.30
2022-09-07T19:12:51.771Z,18.28
2022-09-07T19:15:21.168Z,18.19
2022-09-07T19:17:49.158Z,18.17
2022-09-07T19:20:18.649Z,18.14
2022-09-07T19:22:47.580Z,18.11
2022-09-07T19:25:15.678Z,18.07
2022-09-07T19:27:43.665Z,18.05
2022-09-07T19:30:12.509Z,18.01
2022-09-07T19:32:40.525Z,18.03
2022-09-07T19:35:09.131Z,18.04
2022-09-07T19:37:38.470Z,18.03
2022-09-07T19:40:08.231Z,18.05
2022-09-07T19:42:36.201Z,18.00
2022-09-07T19:45:04.596Z,18.02
2022-09-07T19:47:32.548Z,18.01
2022-09-07T19:50:00.541Z,18.02
2022-09-07T19:52:29.131Z,18.02
2022-09-07T19:55:00.321Z,18.01
2022-09-07T19:57:28.482Z,18.02
2022-09-07T19:59:57.914Z,18.02
2022-09-07T20:02:26.041Z,18.04
2022-09-07T20:04:54.040Z,18.03
2022-09-07T20:07:23.801Z,17.98
2022-09-07T20:09:52.380Z,17.96
2022-09-07T20:12:21.735Z,17.94
2022-09-07T20:14:49.696Z,17.94
2022-09-07T20:17:17.681Z,17.93
2022-09-07T20:19:45.654Z,17.83
2022-09-07T20:22:13.628Z,17.81
2022-09-07T20:24:41.762Z,17.83
2022-09-07T20:27:09.721Z,17.84
2022-09-07T20:29:39.054Z,17.90
2022-09-07T20:32:07.098Z,17.91
2022-09-07T20:34:35.207Z,17.85
2022-09-07T20:37:03.164Z,17.71
2022-09-07T20:39:33.631Z,17.65
2022-09-07T20:42:05.241Z,17.52
2022-09-07T20:44:33.215Z,17.52
2022-09-07T20:47:02.740Z,17.60
2022-09-07T20:49:31.324Z,17.61
2022-09-07T20:51:59.277Z,17.66
2022-09-07T20:54:27.190Z,17.70
2022-09-07T20:56:55.136Z,17.76
2022-09-07T20:59:23.183Z,17.76
2022-09-07T21:01:51.154Z,17.74
2022-09-07T21:04:20.599Z,17.69
2022-09-07T21:06:48.529Z,17.62
2022-09-07T21:09:16.477Z,17.53
2022-09-07T21:11:49.026Z,17.46
2022-09-07T21:14:19.210Z,17.40
2022-09-07T21:16:47.149Z,17.35
2022-09-07T21:19:15.749Z,17.33
2022-09-07T21:21:45.110Z,17.29
2022-09-07T21:24:17.657Z,17.28
2022-09-07T21:26:45.965Z,17.21
2022-09-07T21:29:18.436Z,17.14
2022-09-07T21:31:46.662Z,17.06
2022-09-07T21:34:15.390Z,16.97
2022-09-07T21:36:45.431Z,16.95
2022-09-07T21:39:14.832Z,16.94
2022-09-07T21:41:43.535Z,16.84
2022-09-07T21:44:13.898Z,16.72
2022-09-07T21:46:43.189Z,16.65
2022-09-07T21:49:11.571Z,16.64
2022-09-07T21:51:39.632Z,16.55
2022-09-07T21:54:09.149Z,16.50
2022-09-07T21:56:37.520Z,16.47
2022-09-07T21:59:06.555Z,16.42
2022-09-07T22:01:34.787Z,16.35
2022-09-07T22:04:05.006Z,16.29
2022-09-07T22:06:33.687Z,16.40
2022-09-07T22:09:02.379Z,16.40
2022-09-07T22:11:31.886Z,16.39
2022-09-07T22:14:02.586Z,16.38
2022-09-07T22:16:31.118Z,16.31
2022-09-07T22:18:59.145Z,16.30
2022-09-07T22:21:29.220Z,16.30
2022-09-07T22:23:58.726Z,16.25
2022-09-07T22:26:28.823Z,16.21
2022-09-07T22:28:59.499Z,16.21
2022-09-07T22:31:29.829Z,16.19
2022-09-07T22:33:59.721Z,16.18
2022-09-07T22:36:29.453Z,16.10
2022-09-07T22:38:59.512Z,16.00
2022-09-07T22:41:28.985Z,15.92
2022-09-07T22:43:58.598Z,15.88
2022-09-07T22:46:28.996Z,15.86
2022-09-07T22:48:58.161Z,15.87
2022-09-07T22:51:26.944Z,15.85
2022-09-07T22:53:56.428Z,15.83
2022-09-07T22:56:26.094Z,15.78
2022-09-07T22:58:56.702Z,15.71
2022-09-07T23:01:26.550Z,15.68
2022-09-07T23:03:55.378Z,15.69
2022-09-07T23:06:27.891Z,15.68
2022-09-07T23:08:57.744Z,15.68
2022-09-07T23:11:26.674Z,15.66
2022-09-07T23:13:55.995Z,15.64
2022-09-07T23:16:24.728Z,15.63
2022-09-07T23:18:54.236Z,15.57
2022-09-07T23:21:22.281Z,15.57
2022-09-07T23:23:52.089Z,15.52
2022-09-07T23:26:20.978Z,15.46
2022-09-07T23:28:52.637Z,15.39
2022-09-07T23:31:21.045Z,15.37
2022-09-07T23:33:49.393Z,15.36
2022-09-07T23:36:19.169Z,15.39
2022-09-07T23:38:47.560Z,15.35
2022-09-07T23:41:16.545Z,15.37
2022-09-07T23:43:44.628Z,15.39
2022-09-07T23:46:13.859Z,15.41
2022-09-07T23:48:43.373Z,15.39
2022-09-07T23:51:11.657Z,15.36
2022-09-07T23:53:41.378Z,15.37
2022-09-07T23:56:09.404Z,15.33
2022-09-07T23:58:37.356Z,15.32
